Time;durP1;ratioP1;P1;durP2;ratioP2;P2;SDS_P1;SDS_P2;PMS_P1;PMS_P2;Temp;Humidity;BMP_temperature;BMP_pressure;BME280_temperature;BME280_humidity;BME280_pressure;Samples;Min_cycle;Max_cycle;Signal;HPM_P1;HPM_P2
2021/10/07 04:37:28;;;;;;;;;39.00;33.60;;;;;19.51;55.54;99516.16;7126039;22;97768;-66
2021/10/07 04:40:32;;;;;;;;;43.00;35.00;;;;;19.53;55.36;99503.88;6162794;28;97363;-67
2021/10/07 04:43:35;;;;;;;;;43.20;34.20;;;;;19.45;55.33;99507.09;6155385;28;97508;-67
2021/10/07 04:46:38;;;;;;;;;46.60;37.00;;;;;19.42;55.43;99524.84;6145942;28;96819;-67
2021/10/07 04:49:42;;;;;;;;;37.20;32.80;;;;;19.14;55.51;99502.50;6163706;28;97295;-67
2021/10/07 04:52:46;;;;;;;;;44.60;34.60;;;;;19.23;56.03;99525.53;6166811;28;96490;-68
2021/10/07 04:55:54;;;;;;;;;41.40;33.80;;;;;19.17;55.44;99529.31;6165027;28;96489;-67
2021/10/07 04:58:59;;;;;;;;;38.60;33.00;;;;;19.14;55.36;99536.13;6165987;28;96961;-66
2021/10/07 05:02:02;;;;;;;;;37.40;32.00;;;;;19.08;55.60;99533.59;6166774;28;97068;-66
2021/10/07 05:05:06;;;;;;;;;38.00;32.60;;;;;19.02;55.12;99533.56;6147104;28;97488;-66
2021/10/07 05:08:11;;;;;;;;;43.20;35.00;;;;;18.95;55.74;99524.78;6147220;28;99732;-67
2021/10/07 05:11:14;;;;;;;;;39.80;32.40;;;;;18.97;55.78;99540.91;6164798;28;97464;-66
2021/10/07 05:14:17;;;;;;;;;35.60;31.00;;;;;18.96;55.28;99542.78;6164341;28;97395;-67
2021/10/07 05:17:20;;;;;;;;;38.60;32.80;;;;;18.93;55.62;99540.59;6139991;28;97655;-67
2021/10/07 05:20:24;;;;;;;;;38.75;33.00;;;;;18.88;55.27;99551.47;6140064;28;97481;-67
2021/10/07 05:23:29;;;;;;;;;34.50;30.00;;;;;18.80;55.18;99541.03;6160749;28;96652;-67
2021/10/07 05:26:32;;;;;;;;;34.00;30.00;;;;;18.69;55.42;99535.72;6163713;28;97579;-67
2021/10/07 05:29:35;;;;;;;;;33.00;28.50;;;;;18.70;55.17;99540.13;6163932;28;97492;-67
2021/10/07 05:32:39;;;;;;;;;31.80;28.40;;;;;18.50;55.19;99516.13;6141494;28;97246;-69
2021/10/07 05:35:42;;;;;;;;;30.00;27.80;;;;;18.64;55.11;99539.22;6146457;28;98749;-70
2021/10/07 05:38:47;;;;;;;;;30.20;27.20;;;;;18.65;55.35;99548.25;6160521;28;97428;-67
2021/10/07 05:41:50;;;;;;;;;30.40;26.40;;;;;18.60;55.74;99546.31;6162613;28;97072;-67
2021/10/07 05:44:53;;;;;;;;;29.80;26.00;;;;;18.65;55.78;99548.25;6162542;28;96563;-66
2021/10/07 05:47:57;;;;;;;;;24.20;22.60;;;;;18.58;55.77;99548.44;6161820;28;97277;-69
2021/10/07 05:51:00;;;;;;;;;27.40;24.00;;;;;18.63;55.33;99555.88;6157739;28;98109;-66
2021/10/07 05:54:05;;;;;;;;;25.60;23.00;;;;;18.67;55.38;99560.56;6161446;28;96545;-66
2021/10/07 05:57:09;;;;;;;;;23.60;21.00;;;;;18.69;55.09;99560.31;6162029;28;97535;-67
2021/10/07 06:00:14;;;;;;;;;26.75;25.75;;;;;18.74;54.92;99557.63;6143753;28;97455;-67
2021/10/07 06:03:18;;;;;;;;;25.00;23.00;;;;;18.76;55.10;99559.03;6119364;28;97374;-66
2021/10/07 06:06:21;;;;;;;;;22.75;22.00;;;;;18.78;54.87;99559.59;6170082;28;96697;-68
2021/10/07 06:09:26;;;;;;;;;26.00;22.40;;;;;18.80;55.06;99559.34;6160984;28;96680;-68
2021/10/07 06:12:29;;;;;;;;;25.80;23.20;;;;;18.76;55.06;99552.75;6137014;28;97794;-70
2021/10/07 06:15:33;;;;;;;;;26.80;24.00;;;;;18.85;54.89;99557.47;6161401;28;97493;-67
2021/10/07 06:18:36;;;;;;;;;23.75;22.00;;;;;18.86;54.88;99558.31;6157894;28;97094;-69
2021/10/07 06:21:39;;;;;;;;;23.50;20.00;;;;;18.84;54.82;99561.28;6161449;28;96845;-68
2021/10/07 06:24:44;;;;;;;;;23.00;21.80;;;;;18.85;55.09;99562.94;6161363;28;96472;-68
2021/10/07 06:27:50;;;;;;;;;26.40;23.00;;;;;18.83;54.91;99559.63;6155710;28;97801;-69
2021/10/07 06:30:53;;;;;;;;;25.00;22.40;;;;;18.81;55.11;99553.63;6161804;28;97506;-67
2021/10/07 06:33:56;;;;;;;;;24.00;22.00;;;;;18.84;54.95;99561.28;6153716;28;97856;-64
2021/10/07 06:37:00;;;;;;;;;24.25;23.00;;;;;18.86;55.04;99559.09;6160726;28;97359;-66
2021/10/07 06:40:08;;;;;;;;;24.50;22.50;;;;;18.93;55.08;99562.47;6149560;28;96519;-67
2021/10/07 06:43:13;;;;;;;;;23.40;23.00;;;;;18.97;54.99;99560.03;6164496;28;97458;-67
2021/10/07 06:46:17;;;;;;;;;24.00;22.00;;;;;18.96;55.20;99558.41;6161213;28;96713;-68
2021/10/07 06:49:21;;;;;;;;;24.00;22.00;;;;;18.91;54.99;99555.63;6144592;28;97182;-67
2021/10/07 06:52:24;;;;;;;;;25.00;24.00;;;;;18.99;54.98;99566.06;6158951;28;97772;-68
2021/10/07 06:55:29;;;;;;;;;24.00;23.00;;;;;18.98;54.77;99578.06;6160589;28;97633;-67
2021/10/07 06:58:32;;;;;;;;;25.00;24.00;;;;;18.94;54.23;99576.94;6160912;28;96597;-67
2021/10/07 07:01:35;;;;;;;;;29.00;25.60;;;;;18.89;54.42;99590.56;6161010;28;97995;-68
2021/10/07 07:04:39;;;;;;;;;24.60;23.40;;;;;18.86;54.38;99591.88;6159825;28;97433;-70
2021/10/07 07:07:42;;;;;;;;;28.00;26.40;;;;;18.83;54.30;99589.69;6160562;28;97348;-67
2021/10/07 07:10:47;;;;;;;;;28.00;26.80;;;;;18.80;54.77;99600.31;6160198;28;96598;-68
2021/10/07 07:13:50;;;;;;;;;29.60;27.00;;;;;18.76;54.47;99601.91;6160600;28;96650;-69
2021/10/07 07:16:53;;;;;;;;;25.40;24.00;;;;;18.67;54.62;99609.72;6160475;28;97245;-69
2021/10/07 07:20:10;;;;;;;;;28.00;26.00;;;;;18.53;54.75;99602.97;6160145;28;96680;-68
2021/10/07 07:23:13;;;;;;;;;32.40;30.00;;;;;18.64;55.01;99610.25;6160730;28;96572;-68
2021/10/07 07:26:18;;;;;;;;;32.00;28.00;;;;;18.62;55.14;99609.66;6137124;28;99430;-67
2021/10/07 07:29:21;;;;;;;;;30.50;29.50;;;;;18.60;54.96;99603.66;6159085;28;97121;-68
2021/10/07 07:32:24;;;;;;;;;32.00;28.40;;;;;18.45;55.46;99587.91;6150903;28;96813;-68
2021/10/07 07:35:31;;;;;;;;;34.00;29.00;;;;;18.71;54.79;99610.88;6158278;28;99635;-71
2021/10/07 07:38:34;;;;;;;;;34.75;29.75;;;;;18.72;54.89;99615.25;6152133;28;98100;-73
2021/10/07 07:41:39;;;;;;;;;32.60;29.60;;;;;18.78;54.73;99619.69;6159654;28;97085;-70
2021/10/07 07:44:42;;;;;;;;;33.25;31.00;;;;;18.77;54.63;99622.66;6160830;28;96520;-69
2021/10/07 07:47:46;;;;;;;;;33.60;30.00;;;;;18.76;54.35;99610.09;6160572;28;97718;-69
2021/10/07 07:50:49;;;;;;;;;30.00;28.00;;;;;18.80;54.37;99624.91;6160535;28;97523;-69
2021/10/07 07:53:52;;;;;;;;;34.40;30.40;;;;;18.82;54.37;99622.72;6161280;28;97886;-69
2021/10/07 07:56:57;;;;;;;;;33.20;28.20;;;;;18.86;54.36;99627.41;6145305;28;98506;-69
2021/10/07 08:00:01;;;;;;;;;31.80;30.00;;;;;18.92;54.68;99629.13;6160483;28;97045;-70
2021/10/07 08:03:14;;;;;;;;;33.25;29.00;;;;;18.96;54.51;99632.97;6160930;28;97408;-70
2021/10/07 08:06:17;;;;;;;;;32.80;28.80;;;;;18.97;54.51;99631.91;6161179;28;96916;-67
2021/10/07 08:09:22;;;;;;;;;36.00;30.00;;;;;19.08;54.53;99635.56;6160977;28;96549;-67
2021/10/07 08:12:31;;;;;;;;;37.00;32.00;;;;;19.15;53.86;99643.56;6160823;28;97102;-66
2021/10/07 08:15:35;;;;;;;;;36.00;31.00;;;;;19.26;53.84;99648.00;6133526;28;96778;-68
2021/10/07 08:18:38;;;;;;;;;34.60;30.00;;;;;19.32;53.76;99647.81;6163759;28;96899;-69
2021/10/07 08:21:42;;;;;;;;;31.00;28.00;;;;;19.35;53.05;99658.22;6148624;28;96712;-69
2021/10/07 08:24:45;;;;;;;;;31.00;29.00;;;;;19.34;53.46;99642.91;6163291;28;97509;-72
2021/10/07 08:27:50;;;;;;;;;28.00;25.50;;;;;19.32;52.60;99646.97;6164546;28;97438;-70
2021/10/07 08:30:53;;;;;;;;;29.75;28.75;;;;;19.37;53.53;99649.75;6164415;28;97518;-71
2021/10/07 08:33:56;;;;;;;;;31.40;28.40;;;;;19.39;52.93;99645.69;6163870;28;97454;-69
2021/10/07 08:37:00;;;;;;;;;30.00;28.00;;;;;19.41;52.69;99648.16;6164557;28;96701;-68
2021/10/07 08:40:05;;;;;;;;;30.00;27.60;;;;;19.30;52.81;99641.75;6163267;28;97136;-68
2021/10/07 08:43:09;;;;;;;;;36.60;31.60;;;;;19.30;53.09;99649.16;6164914;28;96478;-69
2021/10/07 08:46:13;;;;;;;;;32.00;29.50;;;;;19.19;53.13;99653.72;6156535;28;97372;-70
2021/10/07 08:49:20;;;;;;;;;32.00;29.60;;;;;19.16;53.59;99653.38;6163942;28;96588;-71
2021/10/07 08:52:23;;;;;;;;;29.00;27.25;;;;;19.17;53.54;99652.31;6179290;28;96676;-69
2021/10/07 08:55:27;;;;;;;;;30.60;28.60;;;;;19.14;53.77;99637.25;6164358;28;97400;-67
2021/10/07 08:58:32;;;;;;;;;33.00;29.00;;;;;19.24;53.37;99658.41;6162482;28;97973;-67
2021/10/07 09:01:40;;;;;;;;;33.00;28.20;;;;;19.38;53.34;99654.16;6162457;28;97476;-69
2021/10/07 09:04:44;;;;;;;;;30.40;27.20;;;;;19.54;53.11;99647.75;6153990;28;96570;-70
2021/10/07 09:07:55;;;;;;;;;29.80;26.60;;;;;19.78;52.57;99650.94;6162520;28;97555;-71
2021/10/07 09:10:58;;;;;;;;;31.50;28.00;;;;;19.86;52.12;99653.19;6163510;28;97814;-65
2021/10/07 09:14:05;;;;;;;;;33.20;27.60;;;;;19.87;52.29;99663.03;6163686;28;97501;-73
2021/10/07 09:17:10;;;;;;;;;28.00;26.00;;;;;19.75;51.74;99656.94;6163802;28;96570;-68
2021/10/07 09:20:31;;;;;;;;;32.20;28.80;;;;;19.75;52.49;99654.19;6159125;28;97383;-71
2021/10/07 09:23:35;;;;;;;;;32.00;27.00;;;;;19.87;52.36;99669.34;6146916;28;99645;-69
2021/10/07 09:26:39;;;;;;;;;30.00;26.40;;;;;19.96;52.10;99668.84;6162050;28;96657;-66
2021/10/07 09:29:49;;;;;;;;;27.40;25.80;;;;;20.01;51.73;99656.00;6162563;28;97121;-69
2021/10/07 09:33:00;;;;;;;;;26.25;24.25;;;;;20.03;51.05;99664.81;6162508;28;97499;-68
2021/10/07 09:36:16;;;;;;;;;30.33;26.67;;;;;19.92;51.18;99670.47;6177826;28;97585;-68
2021/10/07 09:39:21;;;;;;;;;25.60;23.60;;;;;19.86;51.48;99664.97;6146862;28;97488;-70
2021/10/07 09:42:28;;;;;;;;;30.20;26.00;;;;;19.85;51.11;99657.00;6161639;28;97595;-69
2021/10/07 09:45:35;;;;;;;;;26.00;25.00;;;;;19.68;50.99;99646.22;6160668;28;98858;-68
2021/10/07 09:48:39;;;;;;;;;26.50;23.75;;;;;19.80;51.23;99674.22;6162697;28;97672;-70
2021/10/07 09:51:44;;;;;;;;;26.00;24.40;;;;;19.92;51.13;99674.03;6162329;28;97447;-70
2021/10/07 09:54:47;;;;;;;;;24.00;23.40;;;;;20.40;50.70;99674.88;6162804;28;97066;-69
2021/10/07 09:57:57;;;;;;;;;26.00;23.60;;;;;20.82;49.91;99667.34;6162215;28;97469;-69
2021/10/07 10:01:01;;;;;;;;;23.00;22.00;;;;;21.23;49.08;99662.81;6170752;28;97947;-68
2021/10/07 10:04:05;;;;;;;;;24.00;22.33;;;;;21.74;47.52;99666.41;6161499;28;97408;-68
2021/10/07 10:07:08;;;;;;;;;26.80;23.00;;;;;22.12;46.62;99609.25;6158941;28;97172;-69
2021/10/07 10:10:14;;;;;;;;;22.40;22.00;;;;;23.90;44.46;99676.63;6161185;28;96653;-68
2021/10/07 10:13:17;;;;;;;;;22.00;20.00;;;;;25.03;40.66;99664.06;6162644;28;98308;-70
2021/10/07 10:16:22;;;;;;;;;20.00;19.00;;;;;26.11;38.64;99659.25;6159111;28;100168;-68
2021/10/07 10:19:26;;;;;;;;;21.00;19.50;;;;;26.36;37.27;99664.31;6162081;28;96582;-66
2021/10/07 10:22:30;;;;;;;;;21.20;19.20;;;;;26.43;37.29;99662.00;6164618;28;96729;-69
2021/10/07 10:25:52;;;;;;;;;21.00;19.50;;;;;26.40;36.59;99665.34;6163585;28;96766;-71
2021/10/07 10:28:55;;;;;;;;;19.00;18.00;;;;;26.81;36.09;99658.97;6162675;28;97624;-70
2021/10/07 10:32:03;;;;;;;;;20.60;18.40;;;;;27.40;35.13;99661.50;6162524;28;97104;-69
2021/10/07 10:35:34;;;;;;;;;21.00;19.60;;;;;28.41;33.22;99661.66;6161593;28;96790;-68
2021/10/07 10:38:41;;;;;;;;;19.00;16.00;;;;;29.02;31.38;99659.06;6161497;28;97465;-67
2021/10/07 10:41:51;;;;;;;;;19.20;18.00;;;;;29.38;31.08;99658.78;6160954;28;97522;-69
2021/10/07 10:44:56;;;;;;;;;17.00;15.80;;;;;30.00;30.31;99656.44;6153537;28;97566;-67
2021/10/07 10:48:00;;;;;;;;;16.00;15.00;;;;;30.16;29.66;99667.81;6172984;28;96589;-67
2021/10/07 10:51:04;;;;;;;;;19.00;16.00;;;;;28.88;29.56;99664.78;6156698;28;98518;-69
2021/10/07 10:54:15;;;;;;;;;16.00;15.00;;;;;29.02;30.12;99657.13;6170266;28;97549;-71
2021/10/07 10:57:29;;;;;;;;;19.25;18.00;;;;;28.93;30.95;99667.38;6174402;28;97470;-68
2021/10/07 11:00:36;;;;;;;;;17.00;14.40;;;;;28.25;31.13;99652.13;6181424;28;96615;-70
2021/10/07 11:03:41;;;;;;;;;15.00;14.60;;;;;28.57;31.79;99653.72;6155186;28;97708;-70
2021/10/07 11:07:18;;;;;;;;;18.40;16.00;;;;;28.94;30.31;99655.13;6162020;28;96505;-70
2021/10/07 11:10:29;;;;;;;;;16.00;15.00;;;;;28.43;31.10;99648.31;6158475;28;97445;-67
2021/10/07 11:13:34;;;;;;;;;14.60;14.00;;;;;28.35;30.77;99643.53;6162852;28;97495;-70
2021/10/07 11:16:45;;;;;;;;;16.40;15.40;;;;;28.09;32.20;99645.34;6161897;28;97090;-69
2021/10/07 11:19:50;;;;;;;;;17.40;15.80;;;;;27.80;32.84;99643.09;6162123;28;97482;-66
2021/10/07 11:23:10;;;;;;;;;15.60;14.00;;;;;27.67;33.06;99651.44;6160123;28;96833;-70
2021/10/07 11:26:14;;;;;;;;;18.00;16.00;;;;;27.34;32.88;99648.91;6161702;28;96762;-70
2021/10/07 11:29:18;;;;;;;;;17.00;14.25;;;;;26.89;34.00;99647.19;6162123;28;96441;-69
2021/10/07 11:32:21;;;;;;;;;14.00;13.00;;;;;26.55;33.35;99648.44;6161709;28;97641;-69
2021/10/07 11:35:26;;;;;;;;;16.00;16.00;;;;;26.17;33.58;99636.75;6161216;28;97478;-68
2021/10/07 11:38:29;;;;;;;;;15.00;14.00;;;;;26.13;34.03;99637.66;6161386;28;98324;-67
2021/10/07 11:41:34;;;;;;;;;14.60;13.60;;;;;26.40;34.13;99636.88;6160470;28;97679;-69
2021/10/07 11:44:45;;;;;;;;;16.00;15.00;;;;;26.38;32.67;99645.50;6159748;28;96999;-69
2021/10/07 11:47:49;;;;;;;;;17.60;14.00;;;;;26.59;31.54;99648.63;6163485;28;96535;-69
2021/10/07 11:50:58;;;;;;;;;15.40;12.80;;;;;26.44;31.62;99635.16;6160720;28;98503;-69
2021/10/07 11:54:04;;;;;;;;;13.00;12.00;;;;;26.53;30.98;99650.72;6162772;28;97183;-68
2021/10/07 11:57:08;;;;;;;;;13.60;13.00;;;;;26.57;30.60;99657.25;6147359;28;96715;-69
2021/10/07 12:00:12;;;;;;;;;14.00;13.00;;;;;26.28;30.57;99642.94;6163463;28;97327;-70
2021/10/07 12:03:24;;;;;;;;;12.00;12.00;;;;;26.05;30.44;99646.66;6164020;28;96704;-70
2021/10/07 12:06:32;;;;;;;;;14.80;13.00;;;;;26.55;29.89;99636.56;6147827;28;98629;-68
2021/10/07 12:09:41;;;;;;;;;15.00;13.80;;;;;26.91;29.15;99650.47;6160635;28;97395;-70
2021/10/07 12:13:05;;;;;;;;;14.00;12.50;;;;;27.04;30.26;99653.22;6162980;28;96861;-71
2021/10/07 12:16:13;;;;;;;;;13.20;12.00;;;;;27.35;30.41;99649.72;6145844;28;97513;-71
2021/10/07 12:19:19;;;;;;;;;12.00;11.00;;;;;27.78;29.94;99645.34;6163792;28;96654;-67
2021/10/07 12:22:29;;;;;;;;;11.20;10.80;;;;;28.34;28.99;99653.00;6166146;28;97179;-68
2021/10/07 12:25:44;;;;;;;;;12.20;10.00;;;;;28.41;27.46;99625.59;6163519;28;96869;-70
2021/10/07 12:28:47;;;;;;;;;11.00;11.00;;;;;28.37;26.06;99646.00;6139206;28;99009;-70
2021/10/07 12:31:53;;;;;;;;;11.40;11.00;;;;;28.34;26.88;99653.00;6162451;28;96639;-68
2021/10/07 12:34:57;;;;;;;;;12.60;12.00;;;;;28.27;27.77;99655.41;6165207;28;97492;-70
2021/10/07 12:38:02;;;;;;;;;11.75;11.25;;;;;27.66;27.99;99656.16;6143793;28;99663;-69
2021/10/07 12:41:05;;;;;;;;;11.00;10.00;;;;;27.31;27.88;99654.28;6154513;28;97759;-68
2021/10/07 12:44:10;;;;;;;;;13.00;10.00;;;;;27.34;27.81;99667.47;6165093;28;97860;-66
2021/10/07 12:47:19;;;;;;;;;9.00;8.00;;;;;26.83;28.41;99674.13;6163299;28;96619;-68
2021/10/07 12:50:23;;;;;;;;;10.60;10.00;;;;;26.17;28.64;99682.91;6164358;28;96528;-68
2021/10/07 12:53:40;;;;;;;;;11.00;11.00;;;;;25.83;29.44;99686.84;6165513;28;96496;-67
2021/10/07 12:56:46;;;;;;;;;11.40;10.00;;;;;25.36;29.99;99696.13;6157930;28;97681;-67
2021/10/07 12:59:54;;;;;;;;;12.00;10.00;;;;;25.45;30.08;99704.56;6164441;28;96589;-65
2021/10/07 13:02:57;;;;;;;;;9.50;9.00;;;;;25.55;30.25;99687.06;6166227;28;96876;-67
2021/10/07 13:06:01;;;;;;;;;10.60;9.60;;;;;25.70;29.67;99690.38;6163758;28;97604;-66
2021/10/07 13:09:07;;;;;;;;;11.60;10.60;;;;;25.91;29.68;99695.53;6160934;28;96657;-67
2021/10/07 13:12:10;;;;;;;;;10.00;8.00;;;;;25.77;30.04;99696.34;6162252;28;97483;-67
2021/10/07 13:15:13;;;;;;;;;11.60;10.00;;;;;25.62;30.28;99691.06;6164690;28;97213;-67
2021/10/07 13:18:17;;;;;;;;;12.00;10.00;;;;;25.55;29.73;99696.16;6166706;28;96720;-69
2021/10/07 13:21:21;;;;;;;;;9.60;9.00;;;;;25.30;29.79;99702.84;6152467;28;98130;-69
2021/10/07 13:24:26;;;;;;;;;12.00;11.00;;;;;25.22;31.33;99709.03;6156061;28;96849;-68
2021/10/07 13:27:29;;;;;;;;;12.00;11.50;;;;;24.92;30.05;99709.47;6146335;28;98002;-72
2021/10/07 13:30:33;;;;;;;;;11.00;10.00;;;;;24.26;31.58;99677.13;6158541;28;96682;-69
2021/10/07 13:33:37;;;;;;;;;10.50;9.50;;;;;24.25;31.46;99702.22;6150278;28;98161;-65
2021/10/07 13:36:40;;;;;;;;;10.00;9.40;;;;;24.38;32.17;99709.81;6121153;28;97148;-66
2021/10/07 13:39:45;;;;;;;;;10.20;10.00;;;;;24.48;30.85;99707.75;6133931;28;98393;-63
2021/10/07 13:42:49;;;;;;;;;11.20;10.00;;;;;24.36;30.51;99710.09;6150043;28;96788;-68
2021/10/07 13:45:53;;;;;;;;;11.00;10.00;;;;;24.35;31.16;99713.97;6127431;28;98938;-68
2021/10/07 13:48:56;;;;;;;;;9.40;8.80;;;;;24.31;30.84;99714.84;6162239;28;96782;-69
2021/10/07 13:51:59;;;;;;;;;11.00;10.00;;;;;24.30;30.70;99710.44;6161568;28;97517;-66
2021/10/07 13:55:05;;;;;;;;;9.00;9.00;;;;;24.15;30.11;99706.69;6127137;28;98553;-71
2021/10/07 13:58:09;;;;;;;;;11.00;10.00;;;;;23.94;30.05;99710.78;6143640;28;97994;-70
2021/10/07 14:01:12;;;;;;;;;10.00;9.00;;;;;23.59;30.27;99714.66;6127861;28;96558;-66
2021/10/07 14:04:16;;;;;;;;;11.00;11.00;;;;;23.37;30.74;99722.47;6144544;28;97447;-69
2021/10/07 14:07:19;;;;;;;;;9.00;8.00;;;;;23.10;31.07;99724.84;6157728;28;97140;-67
2021/10/07 14:10:24;;;;;;;;;10.00;10.00;;;;;23.02;32.07;99714.44;6142437;28;98733;-71
2021/10/07 14:13:28;;;;;;;;;12.00;10.00;;;;;23.00;31.66;99725.72;6161747;28;97216;-66
2021/10/07 14:16:32;;;;;;;;;11.40;10.00;;;;;22.96;31.21;99727.41;6164056;28;96618;-66
2021/10/07 14:19:35;;;;;;;;;11.00;10.00;;;;;23.12;31.16;99737.19;6164582;28;97396;-67
2021/10/07 14:22:38;;;;;;;;;11.00;9.00;;;;;23.19;32.51;99728.66;6163526;28;97573;-68
2021/10/07 14:25:43;;;;;;;;;11.60;11.60;;;;;23.16;31.51;99726.47;6162263;28;97025;-67
2021/10/07 14:28:47;;;;;;;;;10.25;10.00;;;;;23.10;31.05;99733.94;6161827;28;97407;-68
2021/10/07 14:31:50;;;;;;;;;9.80;9.00;;;;;23.20;31.56;99733.03;6166451;28;97144;-68
2021/10/07 14:34:54;;;;;;;;;11.40;11.00;;;;;23.31;31.72;99731.88;6161285;28;98030;-66
2021/10/07 14:37:57;;;;;;;;;8.00;7.00;;;;;23.27;30.43;99725.28;6147900;28;98595;-69
2021/10/07 14:41:02;;;;;;;;;12.80;12.00;;;;;23.11;31.12;99732.81;6162078;28;97443;-70
2021/10/07 14:44:06;;;;;;;;;9.00;9.00;;;;;22.99;31.64;99728.75;6162452;28;96866;-68
2021/10/07 14:47:09;;;;;;;;;9.60;9.60;;;;;22.59;31.51;99710.47;6160065;28;97200;-67
2021/10/07 14:50:13;;;;;;;;;11.00;9.00;;;;;22.46;31.47;99734.69;6161834;28;97136;-67
2021/10/07 14:53:17;;;;;;;;;11.00;10.00;;;;;22.50;32.64;99734.13;6162885;28;97451;-68
2021/10/07 14:56:21;;;;;;;;;11.00;10.00;;;;;22.32;32.28;99730.06;6147603;28;99902;-69
2021/10/07 14:59:24;;;;;;;;;12.40;11.00;;;;;22.37;32.62;99735.56;6162075;28;97104;-69
2021/10/07 15:02:28;;;;;;;;;10.40;10.40;;;;;22.22;33.00;99739.16;6160531;28;97615;-69
2021/10/07 15:05:32;;;;;;;;;13.00;11.00;;;;;21.99;33.13;99742.47;6160724;28;97043;-71
2021/10/07 15:08:35;;;;;;;;;12.20;10.20;;;;;21.80;33.14;99747.63;6161349;28;96485;-66
2021/10/07 15:12:04;;;;;;;;;11.40;10.40;;;;;21.58;33.62;99731.44;6152292;28;96611;-68
2021/10/07 15:15:08;;;;;;;;;11.00;11.00;;;;;21.49;33.41;99748.72;6163831;28;97340;-71
2021/10/07 15:18:13;;;;;;;;;13.00;11.00;;;;;21.38;33.64;99745.13;6163166;28;96564;-65
2021/10/07 15:21:17;;;;;;;;;9.75;9.00;;;;;21.27;34.30;99746.22;6129217;28;96820;-67
2021/10/07 15:24:20;;;;;;;;;13.50;11.00;;;;;21.29;34.34;99755.00;6157248;28;97935;-66
2021/10/07 15:27:25;;;;;;;;;12.60;11.00;;;;;21.20;34.84;99756.63;6170299;28;97717;-69
2021/10/07 15:30:28;;;;;;;;;12.00;10.00;;;;;21.07;35.00;99762.56;6181144;28;97443;-70
2021/10/07 15:33:34;;;;;;;;;10.60;10.00;;;;;20.98;35.43;99761.44;6167960;28;97134;-69
2021/10/07 15:36:37;;;;;;;;;13.00;11.00;;;;;20.88;36.00;99769.63;6166497;28;97448;-68
2021/10/07 15:39:40;;;;;;;;;11.80;10.20;;;;;20.77;35.99;99766.81;6177377;28;98704;-66
2021/10/07 15:42:46;;;;;;;;;11.00;11.00;;;;;20.69;36.21;99774.75;6162538;28;98006;-67
2021/10/07 15:45:49;;;;;;;;;13.50;11.00;;;;;20.57;36.20;99777.72;6162826;28;96770;-67
2021/10/07 15:48:52;;;;;;;;;13.00;12.00;;;;;20.45;36.22;99795.41;6147722;28;98998;-66
2021/10/07 15:51:57;;;;;;;;;11.00;10.00;;;;;20.26;37.10;99775.81;6154607;28;96840;-66
2021/10/07 15:55:00;;;;;;;;;14.00;11.60;;;;;20.14;37.67;99777.91;6166941;28;97439;-68
2021/10/07 15:58:05;;;;;;;;;12.25;11.00;;;;;20.16;37.53;99773.00;6165769;28;97475;-66
2021/10/07 16:01:08;;;;;;;;;12.00;10.50;;;;;20.10;37.86;99787.75;6172074;28;97240;-67
2021/10/07 16:04:12;;;;;;;;;12.50;11.50;;;;;20.05;38.04;99790.44;6165510;28;96973;-66
2021/10/07 16:07:15;;;;;;;;;11.00;10.00;;;;;19.98;38.16;99792.59;6147808;28;97618;-70
2021/10/07 16:10:18;;;;;;;;;12.80;12.00;;;;;19.99;38.41;99795.03;6161529;28;97341;-69
2021/10/07 16:13:24;;;;;;;;;13.00;12.00;;;;;19.95;38.36;99793.91;6164621;28;97150;-68
2021/10/07 16:16:29;;;;;;;;;12.00;11.60;;;;;19.89;38.35;99793.03;6146458;28;96656;-70
2021/10/07 16:19:32;;;;;;;;;11.00;10.40;;;;;19.82;38.27;99791.63;6138270;28;97300;-70
2021/10/07 16:22:36;;;;;;;;;15.00;11.60;;;;;19.76;38.55;99801.69;6164729;28;97705;-68
2021/10/07 16:25:40;;;;;;;;;12.00;11.40;;;;;19.75;38.59;99799.19;6164056;28;97155;-70
2021/10/07 16:28:45;;;;;;;;;13.60;13.00;;;;;19.65;38.57;99805.41;6147480;28;96689;-70
2021/10/07 16:31:51;;;;;;;;;12.00;11.00;;;;;19.56;39.06;99801.50;6165745;28;97457;-70
2021/10/07 16:34:54;;;;;;;;;13.20;11.60;;;;;19.51;39.12;99806.91;6163942;28;97105;-70
2021/10/07 16:37:58;;;;;;;;;14.00;12.00;;;;;19.51;39.42;99804.16;6164400;28;96909;-69
2021/10/07 16:41:02;;;;;;;;;11.00;10.00;;;;;19.57;39.54;99805.88;6155580;28;96969;-70
2021/10/07 16:44:07;;;;;;;;;13.00;12.50;;;;;19.57;39.82;99805.88;6163583;28;96806;-69
2021/10/07 16:47:11;;;;;;;;;14.00;13.00;;;;;19.53;39.85;99803.91;6145948;28;98177;-69
2021/10/07 16:50:14;;;;;;;;;14.00;13.00;;;;;19.49;39.63;99805.53;6164060;28;96497;-68
2021/10/07 16:53:18;;;;;;;;;16.00;15.00;;;;;19.51;39.43;99812.38;6155030;28;96519;-68
2021/10/07 16:56:21;;;;;;;;;14.00;12.50;;;;;19.45;40.05;99800.56;6144902;28;97488;-69
2021/10/07 16:59:26;;;;;;;;;14.00;11.00;;;;;19.46;40.34;99799.47;6163739;28;96715;-70
2021/10/07 17:02:30;;;;;;;;;12.80;12.00;;;;;19.48;40.13;99814.81;6144656;28;96739;-69
2021/10/07 17:05:34;;;;;;;;;15.00;14.00;;;;;19.49;39.70;99816.47;6159849;28;96702;-70
2021/10/07 17:08:37;;;;;;;;;14.40;13.00;;;;;19.49;39.68;99817.28;6161554;28;97323;-68
2021/10/07 17:11:40;;;;;;;;;15.00;14.00;;;;;19.43;39.69;99821.00;6161913;28;97187;-71
2021/10/07 17:14:49;;;;;;;;;13.20;12.00;;;;;19.37;40.06;99816.56;6154388;28;98040;-68
2021/10/07 17:17:53;;;;;;;;;13.00;11.00;;;;;19.35;39.77;99811.34;6157184;28;96681;-70
2021/10/07 17:20:57;;;;;;;;;14.00;12.50;;;;;19.24;39.10;99814.22;6141869;28;96802;-69
2021/10/07 17:24:00;;;;;;;;;13.60;12.00;;;;;19.19;39.67;99816.91;6140532;28;97754;-70
2021/10/07 17:27:03;;;;;;;;;13.00;11.00;;;;;18.96;39.53;99790.69;6167402;28;96721;-68
2021/10/07 17:30:12;;;;;;;;;13.00;13.00;;;;;19.03;39.33;99815.88;6146215;28;96627;-69
2021/10/07 17:33:15;;;;;;;;;13.00;11.60;;;;;18.99;39.50;99820.22;6162154;28;96635;-67
2021/10/07 17:36:18;;;;;;;;;14.50;13.75;;;;;18.85;39.56;99818.94;6142654;28;97028;-69
2021/10/07 17:39:22;;;;;;;;;17.25;13.75;;;;;18.74;39.82;99825.34;6140539;28;97591;-71
2021/10/07 17:42:26;;;;;;;;;18.00;13.00;;;;;18.67;39.63;99822.78;6145283;28;97319;-68
2021/10/07 17:45:31;;;;;;;;;16.80;13.00;;;;;18.55;40.13;99830.25;6152559;28;97231;-69
2021/10/07 17:48:34;;;;;;;;;14.25;13.25;;;;;18.37;39.93;99834.06;6144961;28;98535;-69
2021/10/07 17:51:38;;;;;;;;;14.80;12.80;;;;;18.31;40.22;99836.97;6158008;28;96523;-69
2021/10/07 17:54:41;;;;;;;;;14.40;13.00;;;;;18.23;40.59;99842.84;6141548;28;96791;-69
2021/10/07 17:57:45;;;;;;;;;15.40;13.40;;;;;18.04;40.71;99834.88;6145004;28;97045;-69
2021/10/07 18:00:50;;;;;;;;;15.20;14.00;;;;;18.01;40.94;99840.84;6152729;28;97039;-68
2021/10/07 18:03:53;;;;;;;;;13.40;12.40;;;;;17.86;41.31;99837.84;6161309;28;97663;-69
2021/10/07 18:06:59;;;;;;;;;16.80;15.20;;;;;17.80;41.39;99852.47;6160851;28;96732;-69
2021/10/07 18:10:03;;;;;;;;;15.80;14.20;;;;;17.53;41.74;99835.84;6157001;28;97140;-69
2021/10/07 18:13:07;;;;;;;;;17.20;15.80;;;;;17.38;42.27;99845.63;6152803;28;96679;-70
2021/10/07 18:16:12;;;;;;;;;16.80;14.40;;;;;17.26;42.65;99846.50;6139359;28;99475;-69
2021/10/07 18:19:16;;;;;;;;;14.80;13.00;;;;;17.20;42.72;99844.72;6134122;28;97072;-68
2021/10/07 18:22:19;;;;;;;;;16.50;15.00;;;;;17.18;43.07;99843.31;6159990;28;96622;-68
2021/10/07 18:25:22;;;;;;;;;19.00;14.50;;;;;17.08;43.14;99845.84;6140669;28;97527;-69
2021/10/07 18:28:32;;;;;;;;;16.75;16.00;;;;;16.97;43.67;99843.94;6145991;28;96810;-69
2021/10/07 18:31:36;;;;;;;;;16.00;15.00;;;;;16.96;43.55;99845.84;6162601;28;96434;-71
2021/10/07 18:34:40;;;;;;;;;16.00;15.00;;;;;16.79;43.98;99847.66;6162984;28;97370;-70
2021/10/07 18:37:43;;;;;;;;;18.60;16.60;;;;;16.80;44.19;99835.72;6161023;28;96949;-71
2021/10/07 18:40:47;;;;;;;;;15.60;13.60;;;;;16.75;44.05;99846.50;6144154;28;97085;-71
2021/10/07 18:43:51;;;;;;;;;12.00;12.00;;;;;16.75;44.08;99844.59;6160941;28;97616;-70
2021/10/07 18:46:56;;;;;;;;;16.00;14.00;;;;;16.71;44.24;99845.31;6161636;28;96534;-69